Terminal Aerodrome Forecast
Issued by NWS

Home | Current Version | Previous Version | Text Only | Print | Product List | Glossary On
Versions: 1 2 3 4 5 6 7 8 9 10 11 12 13 14 15 16 17 18 19 20 21 22 23 24 25
000
FTUS45 KBOU 271311 AAA
TAFAPA
TAF AMD
KAPA 271311Z 2713/2812 VRB05KT P6SM FEW012 SCT060
     FM271500 02007KT P6SM VCSH SCT025 BKN050
     FM271700 02013KT P6SM VCTS BKN030CB OVC050
      TEMPO 2718/2722 5SM SHRA BKN020
     FM272200 36010KT P6SM VCSH SCT030 BKN060 PROB30 2722/2724 -SHRA
      BKN030
     FM280100 32007KT P6SM BKN060
     FM280500 24006KT P6SM FEW060 SCT120=

USA.gov is the U.S. government's official web portal to all federal, state and local government web resources and services.